Grand Forks Air Force Base Grand Forks US
ICAO: KRDR
IATA: RDR
Category: Medium
Scheduled Services: No

Elevation: 913 ft
TransAlt. 18000 ft.

Airport Communications:
APP/DEP:118.1
ATIS:27.345
CLNC DEL:119.15
GND:119.15
PMSV METRO:34.35
COMD POST:31.1
PTD:37.22
RDO:122.2
RED RIVER TWR:124.9

KRDR Zoom In..

Runways:

(A) RW 17 length 12351 ft width 150 ft
ILS 111.30 / hdg 174

(B) RW 35 length 12351 ft width 150 ft
ILS 109.90 / hdg 354

Location; KRDR
Day. 20 / Time. 09.56 Zulu
* Altimeter: 30.38
* Temperature: 03° c. 37.4°f.
* Wind from: 000° Speed 00 kn.
Dewpoint: -01° c.
Visibility: 10 Statute Miles.
Clouds: Clear (automated report).

KRDR 200956Z AUTO 00000KT 10SM CLR 03/M01 A3038 RMK AO2 SLP299 T00271013


Wind - Calm.

  YouTube Music Video
 
jpsmedia.com for Web Design  worldairports.se 2018   terms of use